• Join FlightAware (Why Join?)
  • Login
  • US Flag 
07:00AM EDT


 

Airport Tracker/Info


-or-


 

Live Flight TrackerFlight Track Log ✈ N287KB ✈ 13-Jul-2013 ✈ KCOD - KSCK

Flight Track Log - Related Links

Times and Time Zones

All times are in EDT time to prevent confusion due to time zone crossing. See the N287KB flight status page for this flight to view local times or setup timezone preferences in your user account.

Time Position Orientation Groundspeed Altitude Reporting Facility
EDT Latitude Longitude Course Direction KTS MPH feet Rate Location/Type
12:55PM 44.5033 -109.0586 231° Southwest 189 217 6,100  Level Salt Lake Center
12:56PM 44.1553 -109.7062 235° Southwest  Level FlightAware Approximate
12:56PM 44.4511 -109.0689 188° South 225 259 8,100  Level Salt Lake Center
12:57PM 44.0970 -109.8229 235° Southwest  Level FlightAware Approximate
12:57PM 44.3889 -109.1069 204° Southwest 237 273 9,500  Level Salt Lake Center
12:58PM 44.0372 -109.9382 233° Southwest  Level FlightAware Approximate
12:58PM 44.3169 -109.1514 204° Southwest 258 297 12,000  Level Salt Lake Center
12:59PM 43.9760 -110.0518 233° Southwest  Level FlightAware Approximate
12:59PM 44.2406 -109.2153 211° Southwest 294 338 13,100  Level Salt Lake Center
01:00PM 43.9131 -110.1634 231° Southwest  Level FlightAware Approximate
01:00PM 44.1369 -109.2597 197° South 356 410 14,900  Level Salt Lake Center
01:01PM 44.0197 -109.3153 199° South 375 432 18,500 2,700 Climbing Salt Lake Center
01:02PM 43.9472 -109.4003 220° Southwest 350 403 20,600 1,500 Climbing Salt Lake Center
01:03PM 43.8956 -109.5286 241° Southwest 356 410 21,600 1,080 Climbing Salt Lake Center
01:04PM 43.8533 -109.6586 246° West 382 440 22,900 1,320 Climbing Salt Lake Center
01:05PM 43.8125 -109.7900 247° West 389 448 24,400 1,260 Climbing Salt Lake Center
01:06PM 43.7628 -109.9492 247° West 399 459 25,600 1,200 Climbing Salt Lake Center
01:07PM 43.7186 -110.0875 246° West 409 471 27,000 1,200 Climbing Salt Lake Center
01:08PM 43.6692 -110.2453 247° West 403 464 28,200 1,260 Climbing Salt Lake Center
01:09PM 43.6250 -110.3822 246° West 406 467 29,700 1,320 Climbing Salt Lake Center
01:11PM 43.5761 -110.5375 247° West 395 455 31,000 1,020 Climbing Salt Lake Center
01:12PM 43.5325 -110.6686 245° Southwest 394 453 31,900 840 Climbing Salt Lake Center
01:13PM 43.4822 -110.8217 246° West 394 453 32,800 540 Climbing Salt Lake Center
01:14PM 43.4411 -110.9528 247° West 389 448 33,100 240 Climbing Salt Lake Center
01:15PM 43.3978 -111.0853 246° West 394 453 33,400 420 Climbing Salt Lake Center
01:16PM 43.3483 -111.2392 246° West 394 453 34,000 240 Climbing Salt Lake Center
01:17PM 43.3139 -111.3772 251° West 397 457 34,000  Level Salt Lake Center
01:18PM 43.2686 -111.5322 248° West 394 453 34,000  Level Salt Lake Center
01:19PM 43.2228 -111.6592 244° Southwest 391 450 34,000  Level Salt Lake Center
01:20PM 43.1706 -111.8089 244° Southwest 389 448 34,000  Level Salt Lake Center
01:21PM 43.1247 -111.9356 244° Southwest 388 447 34,000  Level Salt Lake Center
01:22PM 43.0719 -112.0883 245° Southwest 393 452 34,000  Level Salt Lake Center
01:23PM 43.0264 -112.2189 245° Southwest 398 458 34,000  Level Salt Lake Center
01:24PM 42.9800 -112.3489 244° Southwest 396 456 34,000  Level Salt Lake Center
01:25PM 42.9261 -112.4978 244° Southwest 393 452 34,000  Level Salt Lake Center
01:26PM 42.8803 -112.6261 244° Southwest 394 453 34,000  Level Salt Lake Center
01:27PM 42.8142 -112.7636 237° Southwest 387 445 34,000  Level Salt Lake Center
01:28PM 42.7550 -112.8789 235° Southwest 388 447 34,000  Level Salt Lake Center
01:29PM 42.6875 -113.0133 236° Southwest 385 443 34,000  Level Salt Lake Center
01:30PM 42.6258 -113.1325 235° Southwest 390 449 34,000  Level Salt Lake Center
01:31PM 42.5650 -113.2511 235° Southwest 387 445 34,000  Level Salt Lake Center
01:32PM 42.5042 -113.3706 235° Southwest 387 445 34,000  Level Salt Lake Center
01:33PM 42.4425 -113.4906 235° Southwest 387 445 34,000  Level Salt Lake Center
01:34PM 42.3669 -113.6358 235° Southwest 393 452 34,000  Level Salt Lake Center
01:35PM 42.3047 -113.7556 235° Southwest 391 450 34,000  Level Salt Lake Center
01:36PM 42.2422 -113.8756 235° Southwest 391 450 34,000  Level Salt Lake Center
01:37PM 42.1792 -113.9964 235° Southwest 395 455 34,000  Level Salt Lake Center
01:38PM 42.1164 -114.1175 235° Southwest 396 456 34,000  Level Salt Lake Center
01:39PM 42.0519 -114.2356 234° Southwest 394 453 34,000  Level Salt Lake Center
01:40PM 41.9781 -114.3772 235° Southwest 389 448 34,000  Level Salt Lake Center
01:41PM 41.9139 -114.4986 235° Southwest 395 455 34,000  Level Salt Lake Center
01:43PM 41.8439 -114.6317 235° Southwest 399 459 34,000  Level Salt Lake Center
01:44PM 41.7814 -114.7442 233° Southwest 395 455 34,000  Level Salt Lake Center
01:45PM 41.7192 -114.8586 234° Southwest 395 455 34,000  Level Salt Lake Center
01:46PM 41.6481 -114.9933 235° Southwest 396 456 34,000  Level Salt Lake Center
01:47PM 41.5853 -115.1067 234° Southwest 398 458 34,000  Level Salt Lake Center
01:48PM 41.5128 -115.2394 234° Southwest 397 457 34,000  Level Salt Lake Center
01:49PM 41.4503 -115.3539 234° Southwest 397 457 34,000  Level Salt Lake Center
01:50PM 41.3778 -115.4872 234° Southwest 398 458 34,000  Level Salt Lake Center
01:51PM 41.3142 -115.5994 233° Southwest 397 457 34,000  Level Salt Lake Center
01:52PM 41.2417 -115.7336 234° Southwest 399 459 34,000  Level Salt Lake Center
01:53PM 41.1783 -115.8453 233° Southwest 397 457 34,000  Level Salt Lake Center
01:54PM 41.1050 -115.9772 234° Southwest 397 457 34,000  Level Salt Lake Center
01:55PM 41.0431 -116.0897 234° Southwest 397 457 34,000  Level Salt Lake Center
01:56PM 40.9689 -116.2214 233° Southwest 398 458 34,000  Level Salt Lake Center
01:57PM 40.9058 -116.3353 234° Southwest 401 461 34,000  Level Salt Lake Center
01:58PM 40.8300 -116.4667 233° Southwest 402 463 34,000  Level Salt Lake Center
01:59PM 40.7661 -116.5789 233° Southwest 401 461 34,000  Level Salt Lake Center
02:00PM 40.7014 -116.6919 233° Southwest 403 464 34,000  Level Salt Lake Center
02:01PM 40.6272 -116.8222 233° Southwest 401 461 34,000  Level Salt Lake Center
02:02PM 40.5567 -116.9556 235° Southwest 402 463 34,000  Level Salt Lake Center
02:03PM 40.4889 -117.0608 230° Southwest 401 461 34,000  Level Salt Lake Center
02:04PM 40.4100 -117.1878 231° Southwest 404 465 34,000  Level Salt Lake Center
02:05PM 40.3422 -117.2947 230° Southwest 401 461 34,000  Level Salt Lake Center
02:06PM 40.2639 -117.4222 231° Southwest 402 463 34,000  Level Salt Lake Center
02:07PM 40.1958 -117.5303 231° Southwest 402 463 34,000  Level Salt Lake Center
02:08PM 40.1175 -117.6575 231° Southwest 401 461 34,000  Level Salt Lake Center
02:09PM 40.0783 -117.7203 231° Southwest 403 464 34,000  Level Oakland Center
02:10PM 40.0086 -117.8336 231° Southwest 401 461 34,000  Level Oakland Center
02:11PM 39.9386 -117.9456 231° Southwest 400 460 34,000  Level Oakland Center
02:12PM 39.8669 -118.0578 230° Southwest 400 460 34,000  Level Oakland Center
02:13PM 39.7964 -118.1706 231° Southwest 402 463 34,000  Level Oakland Center
02:14PM 39.7119 -118.3042 231° Southwest 400 460 34,000  Level Oakland Center
02:15PM 39.6403 -118.4153 230° Southwest 400 460 34,000  Level Oakland Center
02:16PM 39.5694 -118.5261 230° Southwest 399 459 34,000  Level Oakland Center
02:17PM 39.4989 -118.6364 230° Southwest 399 459 34,000 -540 Level Oakland Center
02:18PM 39.4211 -118.7556 230° Southwest 419 482 33,000 -1,260 Descending Oakland Center
02:19PM 39.3481 -118.8708 231° Southwest 420 483 31,500 -1,320 Descending Oakland Center
02:20PM 39.2719 -118.9878 230° Southwest 424 488 30,400 -780 Descending Oakland Center
02:21PM 39.1869 -119.1167 230° Southwest 432 497 30,000 -240 Descending Oakland Center
02:22PM 39.1097 -119.2344 230° Southwest 431 496 30,000  Level Oakland Center
02:23PM 39.0333 -119.3525 230° Southwest 430 495 30,000  Level Oakland Center
02:24PM 38.9542 -119.4697 229° Southwest 434 499 30,000  Level Oakland Center
02:25PM 38.8617 -119.6100 230° Southwest 431 496 30,000 -780 Level Oakland Center
02:26PM 38.7847 -119.7281 230° Southwest 434 499 28,500 -1,800 Descending Oakland Center
02:27PM 38.7072 -119.8442 229° Southwest 444 511 26,400 -2,160 Descending Oakland Center
02:29PM 38.6283 -119.9644 230° Southwest 441 507 24,100 -2,280 Descending Oakland Center
02:30PM 38.5483 -120.0819 229° Southwest 439 505 21,800 -2,160 Descending Oakland Center
02:31PM 38.4692 -120.1961 228° Southwest 430 495 19,700 -2,040 Descending Oakland Center
02:32PM 38.3936 -120.3106 230° Southwest 423 487 17,700 -1,860 Descending Oakland Center
02:33PM 38.3206 -120.4183 229° Southwest 408 470 15,900 -1,980 Descending Oakland Center
02:34PM 38.2342 -120.5444 229° Southwest 395 455 13,700 -1,860 Descending Oakland Center
02:35PM 38.1636 -120.6492 229° Southwest 391 450 12,200 -1,320 Descending Oakland Center
02:36PM 38.0986 -120.7436 229° Southwest 370 426 11,000 -1,200 Descending Oakland Center
02:37PM 38.0419 -120.8267 229° Southwest 333 383 9,800 -1,260 Descending Oakland Center
02:38PM 37.9889 -120.9036 229° Southwest 306 352 8,500 -1,500 Descending Oakland Center
02:39PM 37.9378 -120.9772 229° Southwest 293 337 6,800 -1,680 Descending Oakland Center
02:40PM 37.8808 -121.0375 220° Southwest 280 322 5,100 -1,560 Descending Oakland Center
02:41PM 37.8381 -121.1003 229° Southwest 252 290 3,700 -1,800 Descending Oakland Center
02:42PM 37.8500 -121.1667 283° West 197 227 1,800 -1,920 Descending Northern Cal TRACON
02:43PM 37.8833 -121.2167 310° West 169 194 400 -1,560 Descending Northern Cal TRACON
02:45PM 37.8833 -121.2333 299° West  Level FlightAware Approximate
02:52PM 37.8942 -121.2383 299° West  Level Estimated